Time;durP1;ratioP1;P1;durP2;ratioP2;P2;SDS_P1;SDS_P2;PMS_P1;PMS_P2;Temp;Humidity;BMP_temperature;BMP_pressure;BME280_temperature;BME280_humidity;BME280_pressure;Samples;Min_cycle;Max_cycle;Signal;HPM_P1;HPM_P2
2022/10/19 00:00:01;;;;;;;22.05;18.65;;;;;;;16.61;81.43;101678.53;4192820;28;20048;-71
2022/10/19 00:02:08;;;;;;;28.48;20.17;;;;;;;16.62;81.16;101675.94;4187272;28;20515;-71
2022/10/19 00:04:11;;;;;;;25.38;19.88;;;;;;;16.53;81.50;101675.84;4193868;28;20120;-71
2022/10/19 00:06:16;;;;;;;28.80;20.17;;;;;;;16.53;81.23;101681.09;4184916;28;20499;-71
2022/10/19 00:08:19;;;;;;;29.92;20.23;;;;;;;16.53;81.87;101681.09;4189780;28;20037;-71
2022/10/19 00:10:21;;;;;;;32.30;21.83;;;;;;;16.51;81.78;101672.31;4189754;28;20037;-71
2022/10/19 00:12:24;;;;;;;32.55;22.63;;;;;;;16.46;82.28;101669.66;4191786;28;20043;-72
2022/10/19 00:14:27;;;;;;;40.55;24.38;;;;;;;16.50;82.09;101676.69;4194654;28;20033;-72
2022/10/19 00:16:32;;;;;;;32.67;21.05;;;;;;;16.44;82.29;101676.66;4186887;28;20571;-70
2022/10/19 00:18:36;;;;;;;34.45;20.80;;;;;;;16.39;82.61;101678.34;4193534;28;20098;-72
2022/10/19 00:20:39;;;;;;;35.33;21.77;;;;;;;16.41;82.71;101676.59;4188785;28;20045;-72
2022/10/19 00:22:42;;;;;;;31.25;22.80;;;;;;;16.50;82.28;101686.28;4188717;28;20560;-71
2022/10/19 00:24:45;;;;;;;36.28;22.92;;;;;;;16.43;82.25;101672.25;4186237;28;20053;-71
2022/10/19 00:26:48;;;;;;;37.55;22.85;;;;;;;16.42;82.50;101674.88;4194578;28;20124;-71
2022/10/19 00:28:53;;;;;;;30.60;21.83;;;;;;;16.39;82.52;101684.44;4192512;28;20045;-72
2022/10/19 00:30:56;;;;;;;29.45;19.45;;;;;;;16.45;82.79;101670.50;4189519;28;20090;-71
2022/10/19 00:32:59;;;;;;;28.60;20.70;;;;;;;16.42;82.48;101678.34;4190492;28;20052;-71
2022/10/19 00:35:03;;;;;;;33.42;19.25;;;;;;;16.44;82.23;101676.66;4190690;28;20143;-71
2022/10/19 00:37:06;;;;;;;25.80;18.13;;;;;;;16.46;82.26;101676.66;4186143;28;20440;-71
2022/10/19 00:39:15;;;;;;;25.35;16.90;;;;;;;16.40;82.04;101661.72;4192056;28;20739;-71
2022/10/19 00:41:19;;;;;;;24.98;17.08;;;;;;;16.35;82.46;101666.03;4188516;28;20540;-71
2022/10/19 00:43:24;;;;;;;22.77;17.20;;;;;;;16.34;82.44;101665.16;4194551;28;20036;-71
2022/10/19 00:45:26;;;;;;;22.20;17.45;;;;;;;16.35;82.19;101664.31;4187857;28;20053;-71
2022/10/19 00:47:30;;;;;;;23.92;15.48;;;;;;;16.32;82.30;101664.25;4192145;28;20075;-71
2022/10/19 00:49:37;;;;;;;25.75;17.80;;;;;;;16.33;82.22;101667.78;4196780;28;20375;-72
2022/10/19 00:51:45;;;;;;;25.83;15.57;;;;;;;16.30;82.36;101660.75;4188602;28;20045;-72
2022/10/19 00:53:47;;;;;;;23.30;16.70;;;;;;;16.28;82.51;101665.13;4193436;28;20044;-72
2022/10/19 00:55:51;;;;;;;27.25;18.48;;;;;;;16.32;82.12;101663.38;4189465;28;20028;-71
2022/10/19 00:57:54;;;;;;;20.50;14.57;;;;;;;16.29;82.06;101658.13;4194303;28;20068;-71
2022/10/19 00:59:59;;;;;;;22.52;18.20;;;;;;;16.26;82.32;101660.72;4194121;28;20060;-71
2022/10/19 01:02:04;;;;;;;23.83;17.25;;;;;;;16.25;82.51;101661.56;4192816;28;20049;-71
2022/10/19 01:04:07;;;;;;;27.98;20.83;;;;;;;16.28;82.18;101659.88;4191618;28;20036;-72
2022/10/19 01:06:11;;;;;;;29.45;21.40;;;;;;;16.26;82.27;101656.34;4192701;28;20056;-72
2022/10/19 01:08:15;;;;;;;30.10;20.83;;;;;;;16.25;82.13;101651.06;4188225;28;20037;-71
2022/10/19 01:10:25;;;;;;;25.60;17.42;;;;;;;16.24;81.93;101652.81;4190781;28;20043;-71
2022/10/19 01:12:46;;;;;;;28.63;21.05;;;;;;;16.24;81.83;101647.56;4193901;28;20034;-72
2022/10/19 01:15:04;;;;;;;31.98;22.35;;;;;;;16.22;81.47;101658.06;4187217;28;20514;-72
2022/10/19 01:17:16;;;;;;;45.38;25.33;;;;;;;16.19;81.85;101655.41;4184723;28;20029;-71
2022/10/19 01:19:40;;;;;;;40.90;26.83;;;;;;;16.18;81.70;101653.63;4189754;28;20041;-72
2022/10/19 01:21:47;;;;;;;37.90;25.17;;;;;;;16.11;82.05;101640.44;4194936;28;20040;-72
2022/10/19 01:24:23;;;;;;;41.00;25.23;;;;;;;16.06;82.22;101632.50;4185859;28;20068;-70
2022/10/19 01:26:46;;;;;;;38.40;25.42;;;;;;;16.04;82.33;101640.38;4195808;28;20041;-71
2022/10/19 01:29:05;;;;;;;89.75;29.92;;;;;;;16.07;82.06;101636.91;4189312;28;20044;-71
2022/10/19 01:31:19;;;;;;;37.40;26.88;;;;;;;15.99;82.42;101630.69;4188887;28;20036;-72
2022/10/19 01:33:31;;;;;;;77.97;30.27;;;;;;;16.01;82.45;101631.59;4196376;28;20055;-72
2022/10/19 01:35:41;;;;;;;74.60;29.95;;;;;;;15.96;82.19;101626.31;4192141;28;20490;-72
2022/10/19 01:37:48;;;;;;;51.03;28.10;;;;;;;15.94;82.33;101630.63;4194142;28;20121;-71
2022/10/19 01:39:55;;;;;;;42.08;27.75;;;;;;;15.88;82.66;101618.34;4164706;28;20048;-72
2022/10/19 01:42:01;;;;;;;46.08;28.77;;;;;;;15.90;82.79;101618.34;4195471;28;20036;-72
2022/10/19 01:44:13;;;;;;;45.15;29.80;;;;;;;16.03;82.10;101617.63;4190881;28;20087;-71
2022/10/19 01:46:21;;;;;;;53.50;30.45;;;;;;;16.00;81.84;101616.72;4189086;28;20166;-70
2022/10/19 01:48:29;;;;;;;118.75;33.10;;;;;;;15.97;81.70;101612.31;4189730;28;20111;-69
2022/10/19 01:50:36;;;;;;;76.97;34.58;;;;;;;15.99;81.08;101614.94;4184868;28;20083;-69
2022/10/19 01:52:40;;;;;;;101.50;34.33;;;;;;;15.78;81.90;101612.94;4187690;28;20045;-70
2022/10/19 01:54:47;;;;;;;54.95;30.55;;;;;;;15.68;82.14;101611.94;4192646;28;20086;-70
2022/10/19 01:56:52;;;;;;;56.83;31.75;;;;;;;15.60;82.50;101609.25;4187395;28;20071;-70
2022/10/19 01:58:58;;;;;;;89.85;30.80;;;;;;;15.62;82.46;101609.28;4187731;28;20047;-73
2022/10/19 02:01:05;;;;;;;56.53;29.75;;;;;;;15.58;82.35;101611.00;4186759;28;20091;-74
2022/10/19 02:03:11;;;;;;;64.28;27.83;;;;;;;15.59;82.20;101610.09;4188916;28;20063;-71
2022/10/19 02:05:16;;;;;;;46.10;25.83;;;;;;;15.52;82.38;101605.66;4186286;28;20087;-72
2022/10/19 02:07:22;;;;;;;51.13;24.33;;;;;;;15.60;82.42;101600.53;4184451;28;20037;-70
2022/10/19 02:09:25;;;;;;;47.28;25.63;;;;;;;15.64;82.22;101600.56;4187936;28;20033;-70
2022/10/19 02:11:29;;;;;;;44.95;22.55;;;;;;;15.62;82.09;101609.28;4186539;28;20033;-70
2022/10/19 02:13:33;;;;;;;61.67;23.40;;;;;;;15.59;81.91;101610.09;4189413;28;20154;-73
2022/10/19 02:15:40;;;;;;;46.83;23.38;;;;;;;15.58;82.43;101613.59;4187301;28;20037;-70
2022/10/19 02:17:48;;;;;;;34.45;20.55;;;;;;;15.52;82.63;101605.66;4184081;28;20106;-70
2022/10/19 02:19:53;;;;;;;32.22;19.25;;;;;;;15.48;82.89;101609.13;4187472;28;20041;-70
2022/10/19 02:21:57;;;;;;;43.33;21.55;;;;;;;15.49;83.12;101608.22;4170771;28;20442;-70
2022/10/19 02:24:00;;;;;;;25.23;17.27;;;;;;;15.45;82.98;101611.66;4195026;28;20113;-70
2022/10/19 02:26:03;;;;;;;24.75;16.85;;;;;;;15.46;83.55;101613.44;4196180;28;20040;-70
2022/10/19 02:28:06;;;;;;;31.05;20.05;;;;;;;15.46;84.08;101610.81;4195146;28;20041;-70
2022/10/19 02:30:10;;;;;;;30.92;20.75;;;;;;;15.48;84.00;101616.97;4190577;28;20052;-70
2022/10/19 02:32:13;;;;;;;25.83;18.65;;;;;;;15.50;83.62;101617.88;4190893;28;20106;-70
2022/10/19 02:34:16;;;;;;;81.07;23.92;;;;;;;15.57;82.92;101611.84;4185206;28;20044;-69
2022/10/19 02:36:21;;;;;;;50.22;24.83;;;;;;;15.56;82.40;101612.69;4191186;28;20049;-69
2022/10/19 02:38:25;;;;;;;34.80;20.52;;;;;;;15.48;82.31;101609.97;4188273;28;20557;-70
2022/10/19 02:40:32;;;;;;;93.13;25.15;;;;;;;15.53;82.07;101615.28;4193834;28;20041;-70
2022/10/19 02:42:40;;;;;;;40.50;22.42;;;;;;;15.49;81.92;101608.22;4184497;28;20556;-70
2022/10/19 02:44:47;;;;;;;68.70;24.95;;;;;;;15.43;82.42;101605.53;4193139;28;20451;-70
2022/10/19 02:46:55;;;;;;;45.88;19.35;;;;;;;15.37;82.30;101603.72;4182870;28;20674;-70
2022/10/19 02:48:58;;;;;;;30.45;18.58;;;;;;;15.31;82.30;101604.53;4188057;28;20506;-69
2022/10/19 02:51:01;;;;;;;62.17;20.98;;;;;;;15.30;82.55;101605.41;4191315;28;20048;-70
2022/10/19 02:53:05;;;;;;;90.65;25.02;;;;;;;15.38;82.10;101596.75;4186327;28;20049;-70
2022/10/19 02:55:08;;;;;;;159.85;25.48;;;;;;;15.45;80.77;101598.56;4184613;28;20037;-70
2022/10/19 02:57:16;;;;;;;82.87;21.90;;;;;;;15.32;81.01;101594.94;4194893;28;20064;-70
2022/10/19 02:59:19;;;;;;;71.10;21.25;;;;;;;15.19;81.74;101588.66;4186194;28;20284;-71
2022/10/19 03:01:22;;;;;;;72.80;21.63;;;;;;;15.14;82.25;101590.31;4189089;28;20040;-71
2022/10/19 03:03:25;;;;;;;123.25;22.08;;;;;;;15.16;81.61;101599.09;4188853;28;20453;-70
2022/10/19 03:05:27;;;;;;;24.92;17.15;;;;;;;15.10;82.13;101598.97;4187337;28;20453;-71
2022/10/19 03:07:30;;;;;;;86.88;21.90;;;;;;;15.23;81.23;101598.31;4184255;28;20060;-70
2022/10/19 03:09:35;;;;;;;45.33;18.97;;;;;;;15.11;82.13;101590.28;4191993;28;20516;-71
2022/10/19 03:11:38;;;;;;;60.83;20.15;;;;;;;15.13;82.06;101586.81;4182021;28;20295;-70
2022/10/19 03:13:42;;;;;;;42.13;18.20;;;;;;;15.11;82.19;101580.69;4190260;28;20035;-70
2022/10/19 03:15:44;;;;;;;71.03;20.30;;;;;;;15.11;82.35;101585.03;4181772;28;20041;-70
2022/10/19 03:17:47;;;;;;;64.95;20.17;;;;;;;15.14;81.96;101585.97;4187614;28;20552;-71
2022/10/19 03:19:51;;;;;;;78.18;18.88;;;;;;;15.19;81.75;101583.41;4187975;28;20040;-71
2022/10/19 03:21:53;;;;;;;126.43;21.05;;;;;;;15.12;82.38;101582.44;4183973;28;20049;-70
2022/10/19 03:23:56;;;;;;;40.50;18.98;;;;;;;15.08;82.94;101583.25;4186191;28;20425;-71
2022/10/19 03:26:00;;;;;;;86.28;21.67;;;;;;;15.14;82.71;101582.47;4185587;28;20494;-70
2022/10/19 03:28:03;;;;;;;82.28;22.77;;;;;;;15.10;82.24;101578.03;4190252;28;20044;-70
2022/10/19 03:30:07;;;;;;;100.72;21.40;;;;;;;15.04;82.90;101573.63;4187349;28;20087;-70
2022/10/19 03:32:10;;;;;;;71.88;22.70;;;;;;;15.06;83.19;101581.50;4194096;28;20075;-70
2022/10/19 03:34:13;;;;;;;91.78;23.85;;;;;;;15.14;82.37;101577.22;4189261;28;20491;-70
2022/10/19 03:36:20;;;;;;;78.28;24.17;;;;;;;15.07;82.95;101578.00;4183253;28;20612;-70
2022/10/19 03:38:23;;;;;;;49.47;21.42;;;;;;;15.11;83.03;101578.09;4167053;28;21677;-71
2022/10/19 03:40:26;;;;;;;86.55;22.95;;;;;;;15.13;83.10;101578.09;4187980;28;20110;-72
2022/10/19 03:42:30;;;;;;;75.63;22.92;;;;;;;15.13;82.83;101578.09;4179877;28;20066;-69
2022/10/19 03:44:33;;;;;;;64.05;24.90;;;;;;;15.12;83.54;101576.34;4202851;28;20101;-69
2022/10/19 03:46:36;;;;;;;69.05;25.35;;;;;;;15.17;82.57;101582.50;4191604;28;20533;-69
2022/10/19 03:48:39;;;;;;;44.88;23.95;;;;;;;15.09;83.42;101576.28;4191701;28;20040;-69
2022/10/19 03:50:42;;;;;;;48.35;24.02;;;;;;;15.07;83.31;101583.22;4192772;28;20029;-69
2022/10/19 03:52:45;;;;;;;62.35;25.88;;;;;;;15.08;84.11;101579.75;4171324;28;20041;-69
2022/10/19 03:54:50;;;;;;;56.53;25.17;;;;;;;15.10;84.08;101584.16;4189289;28;20048;-69
2022/10/19 03:56:52;;;;;;;71.18;25.13;;;;;;;15.15;83.43;101579.84;4173932;28;20094;-69
2022/10/19 03:58:59;;;;;;;46.95;24.85;;;;;;;15.16;83.65;101584.25;4191739;28;20087;-69
2022/10/19 04:01:02;;;;;;;57.47;25.77;;;;;;;15.16;84.07;101583.38;4181309;28;20451;-69
2022/10/19 04:03:05;;;;;;;41.50;18.48;;;;;;;15.19;83.66;101578.19;4183979;28;20063;-68
2022/10/19 04:05:08;;;;;;;46.45;24.40;;;;;;;15.23;83.69;101579.09;4183860;28;20052;-69
2022/10/19 04:07:11;;;;;;;39.20;21.52;;;;;;;15.29;83.04;101585.28;4184149;28;20041;-68
2022/10/19 04:09:16;;;;;;;42.45;23.15;;;;;;;15.23;83.61;101585.22;4180474;28;20045;-69
2022/10/19 04:11:23;;;;;;;40.17;20.60;;;;;;;15.23;83.70;101579.09;4191654;28;20375;-68
2022/10/19 04:13:25;;;;;;;49.05;22.67;;;;;;;15.24;83.88;101591.31;4171739;28;20076;-69
2022/10/19 04:15:29;;;;;;;38.47;20.70;;;;;;;15.22;83.26;101583.44;4190511;28;20045;-69
2022/10/19 04:17:32;;;;;;;43.83;22.50;;;;;;;15.25;83.88;101595.72;4191059;28;20048;-68
2022/10/19 04:19:35;;;;;;;36.88;20.00;;;;;;;15.24;83.52;101592.19;4190039;28;20071;-67
2022/10/19 04:21:40;;;;;;;35.83;20.65;;;;;;;15.22;84.07;101593.94;4188008;28;20087;-68
2022/10/19 04:23:43;;;;;;;38.53;20.60;;;;;;;15.22;84.43;101591.31;4193974;28;20040;-66
2022/10/19 04:25:45;;;;;;;43.05;22.83;;;;;;;15.29;84.23;101601.00;4174438;28;20125;-67
2022/10/19 04:27:48;;;;;;;47.38;25.05;;;;;;;15.35;83.15;101597.59;4196020;28;20071;-68
2022/10/19 04:29:51;;;;;;;43.88;24.38;;;;;;;15.35;82.80;101602.84;4189916;28;20514;-72
2022/10/19 04:31:55;;;;;;;36.58;22.80;;;;;;;15.34;82.74;101596.69;4187699;28;20039;-65
2022/10/19 04:33:58;;;;;;;43.17;23.35;;;;;;;15.34;83.14;101598.44;4191373;28;20037;-65
2022/10/19 04:36:02;;;;;;;35.65;21.98;;;;;;;15.31;83.47;101604.53;4184907;28;20033;-65
2022/10/19 04:38:05;;;;;;;35.90;23.60;;;;;;;15.30;83.61;101601.88;4203166;28;20251;-65
2022/10/19 04:40:09;;;;;;;43.83;22.77;;;;;;;15.31;83.26;101599.28;4193200;28;20086;-65
2022/10/19 04:42:17;;;;;;;33.10;20.52;;;;;;;15.29;82.99;101601.00;4186265;28;20502;-66
2022/10/19 04:44:19;;;;;;;32.50;21.10;;;;;;;15.29;83.42;101598.38;4193011;28;20032;-65
2022/10/19 04:46:22;;;;;;;35.90;21.98;;;;;;;15.29;82.87;101594.91;4193788;28;20039;-65
2022/10/19 04:48:27;;;;;;;34.28;22.33;;;;;;;15.29;82.75;101587.91;4194463;28;20041;-66
2022/10/19 04:50:29;;;;;;;35.35;23.60;;;;;;;15.26;83.14;101589.59;4188643;28;20040;-64
2022/10/19 04:52:34;;;;;;;32.08;19.27;;;;;;;15.24;83.36;101591.31;4194198;28;20096;-65
2022/10/19 04:54:36;;;;;;;32.67;19.65;;;;;;;15.22;83.22;101582.59;4187576;28;20041;-65
2022/10/19 04:56:39;;;;;;;39.55;22.98;;;;;;;15.25;83.50;101578.25;4188958;28;20063;-67
2022/10/19 04:58:43;;;;;;;36.40;21.08;;;;;;;15.24;83.10;101581.72;4193352;28;20055;-64
2022/10/19 05:00:46;;;;;;;36.15;22.67;;;;;;;15.27;83.04;101576.50;4197286;28;20098;-63
2022/10/19 05:02:49;;;;;;;38.28;20.85;;;;;;;15.25;83.63;101575.63;4186497;28;20403;-63
2022/10/19 05:04:53;;;;;;;32.15;19.35;;;;;;;15.25;83.51;101573.00;4184017;28;20041;-64
2022/10/19 05:06:56;;;;;;;38.67;25.42;;;;;;;15.30;83.23;101568.72;4186753;28;20041;-64
2022/10/19 05:08:59;;;;;;;40.65;26.02;;;;;;;15.27;83.30;101563.41;4187575;28;20091;-63
2022/10/19 05:11:03;;;;;;;47.72;27.98;;;;;;;15.22;83.76;101559.88;4190601;28;20399;-62
2022/10/19 05:13:06;;;;;;;43.87;28.23;;;;;;;15.27;83.15;101560.78;4189549;28;20124;-61
2022/10/19 05:15:10;;;;;;;50.65;28.48;;;;;;;15.27;83.36;101559.94;4187186;28;22323;-62
2022/10/19 05:17:12;;;;;;;43.08;25.48;;;;;;;15.25;83.23;101551.19;4187961;28;20032;-63
2022/10/19 05:19:15;;;;;;;45.20;26.80;;;;;;;15.17;83.58;101554.59;4189794;28;20044;-62
2022/10/19 05:21:20;;;;;;;43.30;27.23;;;;;;;15.23;83.61;101559.03;4190450;28;20452;-63
2022/10/19 05:23:23;;;;;;;39.05;27.13;;;;;;;15.24;83.78;101555.53;4188164;28;20450;-62
2022/10/19 05:25:26;;;;;;;41.38;26.02;;;;;;;15.27;83.58;101559.94;4187110;28;20048;-62
2022/10/19 05:27:29;;;;;;;44.97;27.95;;;;;;;15.26;82.92;101559.06;4185480;28;20040;-61
2022/10/19 05:29:32;;;;;;;42.20;26.92;;;;;;;15.25;83.03;101552.06;4176095;28;20045;-62
2022/10/19 05:31:35;;;;;;;40.38;26.95;;;;;;;15.18;83.23;101547.59;4184963;28;20044;-62
2022/10/19 05:33:39;;;;;;;51.85;27.50;;;;;;;15.22;83.20;101562.50;4186365;28;20110;-62
2022/10/19 05:35:41;;;;;;;42.05;27.55;;;;;;;15.22;83.37;101548.53;4188551;28;20041;-62
2022/10/19 05:37:45;;;;;;;42.60;26.92;;;;;;;15.23;83.22;101550.25;4182431;28;21336;-62
2022/10/19 05:39:48;;;;;;;41.65;26.38;;;;;;;15.24;83.76;101559.88;4186407;28;20111;-62
2022/10/19 05:41:51;;;;;;;47.85;28.80;;;;;;;15.23;83.32;101548.53;4187678;28;21031;-62
2022/10/19 05:43:56;;;;;;;42.97;24.95;;;;;;;15.25;82.96;101557.28;4185317;28;20044;-66
2022/10/19 05:46:03;;;;;;;38.13;23.35;;;;;;;15.24;82.66;101555.53;4186637;28;20036;-66
2022/10/19 05:48:06;;;;;;;43.95;25.90;;;;;;;15.28;82.83;101556.47;4195484;28;20028;-66
2022/10/19 05:50:09;;;;;;;37.25;22.83;;;;;;;15.26;82.56;101564.28;4209965;28;20069;-67
2022/10/19 05:52:12;;;;;;;37.50;23.85;;;;;;;15.22;82.44;101562.50;4188262;28;20137;-66
2022/10/19 05:54:17;;;;;;;27.35;17.55;;;;;;;15.20;82.74;101559.00;4192715;28;20482;-67
2022/10/19 05:56:20;;;;;;;;;;;;;;;15.09;83.03;101558.84;4186810;28;20072;-68
2022/10/19 05:58:23;;;;;;;36.20;21.77;;;;;;;15.14;83.37;101559.78;4186838;28;20821;-65
2022/10/19 06:00:26;;;;;;;40.25;23.80;;;;;;;15.18;82.96;101561.56;4191680;28;20123;-66
2022/10/19 06:02:29;;;;;;;33.42;20.52;;;;;;;15.16;82.59;101557.19;4190679;28;20064;-65
2022/10/19 06:04:32;;;;;;;31.00;22.45;;;;;;;15.16;83.07;101557.19;4188363;28;20153;-66
2022/10/19 06:06:35;;;;;;;33.35;22.35;;;;;;;15.15;82.75;101561.53;4175123;28;20114;-65
2022/10/19 06:08:39;;;;;;;33.22;21.48;;;;;;;15.15;82.69;101564.13;4182316;28;20041;-65
2022/10/19 06:10:43;;;;;;;29.88;19.45;;;;;;;15.14;83.09;101556.25;4186051;28;20065;-65
2022/10/19 06:12:46;;;;;;;34.88;20.67;;;;;;;15.16;82.95;101554.56;4193893;28;20457;-65
2022/10/19 06:14:50;;;;;;;35.03;20.63;;;;;;;15.19;82.63;101567.69;4187592;28;20494;-65
2022/10/19 06:16:53;;;;;;;31.95;20.98;;;;;;;15.20;82.21;101564.22;4181198;28;20044;-65
2022/10/19 06:18:57;;;;;;;32.33;20.55;;;;;;;15.24;82.49;101565.13;4193803;28;20045;-65
2022/10/19 06:21:02;;;;;;;38.03;22.40;;;;;;;15.24;81.99;101566.00;4192151;28;20116;-66
2022/10/19 06:23:05;;;;;;;33.60;20.90;;;;;;;15.23;81.98;101559.03;4182985;28;20489;-65
2022/10/19 06:25:09;;;;;;;34.45;21.17;;;;;;;15.16;81.95;101552.81;4179539;28;20068;-65
2022/10/19 06:27:13;;;;;;;42.60;23.83;;;;;;;15.18;81.98;101558.94;4190547;28;20056;-65
2022/10/19 06:29:16;;;;;;;41.58;25.00;;;;;;;15.17;81.83;101557.19;4197631;28;20040;-65
2022/10/19 06:31:19;;;;;;;43.25;25.77;;;;;;;15.22;81.86;101561.63;4196977;28;20095;-65
2022/10/19 06:33:21;;;;;;;42.85;24.02;;;;;;;15.17;82.25;101561.53;4163016;28;20084;-65
2022/10/19 06:35:24;;;;;;;31.98;20.52;;;;;;;15.12;82.73;101560.63;4187761;28;20036;-65
2022/10/19 06:37:27;;;;;;;59.28;31.83;;;;;;;15.17;81.70;101565.06;4190662;28;20037;-65
2022/10/19 06:39:30;;;;;;;63.47;35.08;;;;;;;15.16;82.18;101568.53;4185696;28;20052;-65
2022/10/19 06:41:33;;;;;;;70.50;34.22;;;;;;;15.12;82.40;101564.09;4185460;28;20064;-65
2022/10/19 06:43:55;;;;;;;65.53;34.42;;;;;;;15.13;82.38;101572.88;4191918;28;20155;-65
2022/10/19 06:45:58;;;;;;;75.72;37.50;;;;;;;15.13;81.71;101578.97;4180842;28;20123;-65
2022/10/19 06:48:01;;;;;;;58.63;33.28;;;;;;;15.14;82.19;101580.75;4185700;28;20410;-65
2022/10/19 06:50:10;;;;;;;68.53;33.78;;;;;;;15.10;82.30;101583.28;4189844;28;20072;-65
2022/10/19 06:52:12;;;;;;;64.50;33.13;;;;;;;15.15;81.69;101576.38;4183267;28;20045;-65
2022/10/19 06:54:15;;;;;;;64.18;36.33;;;;;;;15.10;82.05;101578.03;4189568;28;20075;-65
2022/10/19 06:56:18;;;;;;;53.70;30.38;;;;;;;15.04;81.77;101571.00;4184853;28;20044;-65
2022/10/19 06:58:21;;;;;;;54.83;32.30;;;;;;;15.05;82.17;101574.50;4184998;28;20494;-65
2022/10/19 07:00:25;;;;;;;57.60;31.67;;;;;;;15.06;82.22;101578.88;4183902;28;20045;-65
2022/10/19 07:02:28;;;;;;;54.85;28.35;;;;;;;15.05;82.13;101584.97;4185349;28;20048;-65
2022/10/19 07:04:31;;;;;;;36.53;23.77;;;;;;;15.05;82.34;101583.22;4190580;28;20037;-65
2022/10/19 07:06:34;;;;;;;40.20;26.52;;;;;;;15.08;82.22;101590.25;4190874;28;20449;-65
2022/10/19 07:08:38;;;;;;;48.45;29.05;;;;;;;15.14;82.69;101585.97;4182150;28;20406;-64
2022/10/19 07:10:41;;;;;;;48.33;26.05;;;;;;;15.11;82.80;101590.28;4190217;28;20052;-65
2022/10/19 07:12:44;;;;;;;48.40;29.92;;;;;;;15.20;82.20;101585.19;4184718;28;20045;-64
2022/10/19 07:14:47;;;;;;;44.67;30.15;;;;;;;15.19;82.39;101583.41;4192163;28;20529;-65
2022/10/19 07:16:51;;;;;;;48.78;28.33;;;;;;;15.26;82.15;101584.34;4193263;28;20037;-65
2022/10/19 07:18:54;;;;;;;43.58;26.77;;;;;;;15.26;82.24;101593.13;4182309;28;20044;-65
2022/10/19 07:20:58;;;;;;;45.35;27.15;;;;;;;15.25;81.84;101591.34;4180357;28;20107;-65
2022/10/19 07:23:01;;;;;;;45.38;27.92;;;;;;;15.26;82.16;101592.22;4186179;28;20067;-64
2022/10/19 07:25:05;;;;;;;43.85;28.77;;;;;;;15.38;81.63;101594.13;4190326;28;20033;-65
2022/10/19 07:27:07;;;;;;;38.90;26.83;;;;;;;15.28;81.40;101594.00;4190819;28;20053;-64
2022/10/19 07:29:10;;;;;;;42.45;27.60;;;;;;;15.34;80.98;101601.06;4186337;28;20033;-65
2022/10/19 07:31:16;;;;;;;39.05;26.67;;;;;;;15.33;81.37;101600.19;4188260;28;20040;-65
2022/10/19 07:33:20;;;;;;;45.35;27.25;;;;;;;15.35;81.22;101601.09;4185758;28;20071;-65
2022/10/19 07:35:23;;;;;;;36.70;24.60;;;;;;;15.37;81.54;101601.09;4190907;28;20476;-65
2022/10/19 07:37:26;;;;;;;37.45;24.92;;;;;;;15.47;81.35;101602.09;4195723;28;20118;-65
2022/10/19 07:39:29;;;;;;;41.25;24.08;;;;;;;15.44;80.91;101594.22;4181700;28;20107;-65
2022/10/19 07:41:33;;;;;;;34.13;21.65;;;;;;;15.33;81.22;101602.81;4185353;28;20495;-65
2022/10/19 07:43:36;;;;;;;33.80;22.42;;;;;;;15.30;82.48;101602.78;4189737;28;20086;-66
2022/10/19 07:45:39;;;;;;;29.05;19.23;;;;;;;15.33;82.39;101608.06;4188303;28;20101;-66
2022/10/19 07:47:41;;;;;;;36.05;23.48;;;;;;;15.33;82.57;101602.81;4187604;28;20048;-65
2022/10/19 07:49:46;;;;;;;40.88;26.38;;;;;;;15.46;81.96;101606.47;4200163;28;20094;-68
2022/10/19 07:51:52;;;;;;;30.35;20.27;;;;;;;15.38;81.76;101607.25;4186526;28;20493;-65
2022/10/19 07:53:55;;;;;;;39.38;25.88;;;;;;;15.44;81.33;101600.31;4189068;28;20037;-66
2022/10/19 07:56:04;;;;;;;32.58;23.25;;;;;;;15.44;81.21;101600.31;4198168;28;20433;-65
2022/10/19 07:58:07;;;;;;;36.90;21.70;;;;;;;15.41;80.94;101599.41;4191505;28;20546;-65
2022/10/19 08:00:11;;;;;;;36.80;23.80;;;;;;;15.42;80.72;101601.16;4196059;28;20048;-65
2022/10/19 08:02:16;;;;;;;32.33;22.40;;;;;;;15.41;81.09;101602.03;4195407;28;20140;-65
2022/10/19 08:04:19;;;;;;;35.40;24.15;;;;;;;15.43;80.94;101595.94;4188560;28;20132;-66
2022/10/19 08:06:43;;;;;;;34.13;24.60;;;;;;;15.49;80.63;101603.91;4190015;28;20045;-66
2022/10/19 08:08:46;;;;;;;36.85;24.00;;;;;;;15.47;81.00;101609.97;4189563;28;20053;-65
2022/10/19 08:10:49;;;;;;;36.60;23.73;;;;;;;15.52;80.71;101603.94;4198150;28;20032;-65
2022/10/19 08:12:52;;;;;;;32.17;23.42;;;;;;;15.55;80.92;101600.47;4188333;28;20044;-66
2022/10/19 08:14:55;;;;;;;38.28;26.40;;;;;;;15.61;80.13;101605.78;4189600;28;20044;-65
2022/10/19 08:16:58;;;;;;;29.50;21.83;;;;;;;15.58;80.47;101604.84;4199711;28;20041;-65
2022/10/19 08:19:03;;;;;;;33.05;22.30;;;;;;;15.63;80.17;101605.78;4189943;28;20037;-66
2022/10/19 08:21:06;;;;;;;35.50;24.33;;;;;;;15.55;80.17;101603.09;4192131;28;20052;-65
2022/10/19 08:23:10;;;;;;;34.78;21.33;;;;;;;15.63;80.05;101606.66;4188876;28;20045;-65
2022/10/19 08:25:13;;;;;;;30.40;22.88;;;;;;;15.61;79.30;101603.16;4191052;28;20037;-65
2022/10/19 08:27:16;;;;;;;26.88;20.27;;;;;;;15.55;79.69;101603.09;4185373;28;20036;-65
2022/10/19 08:29:20;;;;;;;31.65;20.63;;;;;;;15.50;79.66;101594.28;4188485;28;20044;-65
2022/10/19 08:31:23;;;;;;;31.90;23.35;;;;;;;15.52;79.80;101598.69;4184516;28;20567;-65
2022/10/19 08:33:26;;;;;;;34.42;23.05;;;;;;;15.47;80.41;101597.72;4188985;28;20110;-65
2022/10/19 08:35:30;;;;;;;33.47;23.40;;;;;;;15.47;79.89;101608.22;4192904;28;20040;-66
2022/10/19 08:37:33;;;;;;;33.78;22.83;;;;;;;15.50;80.21;101610.00;4197227;28;20412;-65
2022/10/19 08:39:48;;;;;;;28.77;21.40;;;;;;;15.52;80.27;101600.41;4187216;28;20048;-66
2022/10/19 08:42:02;;;;;;;28.42;21.60;;;;;;;15.57;80.27;101601.34;4194576;28;20102;-65
2022/10/19 08:44:26;;;;;;;21.17;16.73;;;;;;;15.54;80.28;101606.56;4188653;28;20033;-65
2022/10/19 08:46:38;;;;;;;35.95;24.15;;;;;;;15.65;80.96;101601.44;4181772;28;20057;-65
2022/10/19 08:48:41;;;;;;;27.63;19.60;;;;;;;15.70;80.75;101602.38;4187888;28;20070;-66
2022/10/19 08:50:46;;;;;;;21.43;16.00;;;;;;;15.70;80.54;101598.00;4191991;28;20071;-65
2022/10/19 08:52:54;;;;;;;17.80;13.95;;;;;;;15.77;79.89;101595.44;4177626;28;20049;-65
2022/10/19 08:55:03;;;;;;;18.48;14.50;;;;;;;15.83;79.32;101592.94;4185633;28;20045;-65
2022/10/19 08:57:15;;;;;;;20.67;14.57;;;;;;;15.85;79.29;101591.22;4194976;28;20531;-65
2022/10/19 08:59:30;;;;;;;19.83;15.00;;;;;;;15.86;79.25;101588.59;4195573;28;20074;-65
2022/10/19 09:01:40;;;;;;;18.05;12.90;;;;;;;15.81;79.84;101594.66;4188600;28;20044;-65
2022/10/19 09:03:48;;;;;;;20.10;15.23;;;;;;;15.79;80.33;101593.78;4190124;28;20049;-65
2022/10/19 09:06:05;;;;;;;17.92;15.63;;;;;;;15.85;79.94;101585.97;4192619;28;20048;-65
2022/10/19 09:08:10;;;;;;;18.35;14.55;;;;;;;15.85;79.51;101586.84;4184852;28;20037;-65
2022/10/19 09:10:24;;;;;;;16.13;13.98;;;;;;;15.88;80.02;101597.34;4192935;28;20044;-65
2022/10/19 09:12:42;;;;;;;14.55;11.93;;;;;;;15.78;79.84;101597.22;4190876;28;20102;-65
2022/10/19 09:14:55;;;;;;;13.45;11.43;;;;;;;15.77;80.51;101600.69;4191459;28;20048;-65
2022/10/19 09:17:02;;;;;;;17.23;14.07;;;;;;;15.80;80.72;101598.13;4204560;28;20063;-66
2022/10/19 09:19:15;;;;;;;16.05;14.13;;;;;;;15.85;79.35;101596.47;4187697;28;20036;-65
2022/10/19 09:21:21;;;;;;;16.73;13.35;;;;;;;15.81;79.02;101597.28;4182285;28;20037;-65
2022/10/19 09:23:41;;;;;;;18.77;14.77;;;;;;;15.88;78.22;101591.25;4194937;28;20040;-65
2022/10/19 09:25:48;;;;;;;17.77;13.98;;;;;;;15.78;77.87;101589.34;4193505;28;20064;-65
2022/10/19 09:28:01;;;;;;;16.67;12.82;;;;;;;15.70;78.67;101584.91;4187047;28;20051;-65